Terminal Aerodrome Forecast
Issued by NWS Tulsa, OK

Home | Current Version | Previous Version | Text Only | Print | Product List | Glossary On
Versions: 1 2 3 4 5 6 7 8 9 10 11 12
000
FTUS44 KTSA 221136
TAFFSM
TAF
KFSM 221136Z 2212/2312 VRB04KT P6SM SKC
     FM221500 25005KT P6SM SCT050 BKN250
     FM221800 27008KT P6SM SCT050 BKN150
     FM222100 29006KT P6SM VCTS BKN050CB
     FM230500 VRB05KT P6SM BKN250=

USA.gov is the U.S. government's official web portal to all federal, state and local government web resources and services.